sensor_id;sensor_type;location;lat;lon;timestamp;temperature;humidity
70947;DHT22;58605;48.700;8.760;2023-07-31T00:00:06;16.90;70.10
70947;DHT22;58605;48.700;8.760;2023-07-31T00:02:34;16.90;70.10
70947;DHT22;58605;48.700;8.760;2023-07-31T00:05:02;16.90;70.30
70947;DHT22;58605;48.700;8.760;2023-07-31T00:07:28;17.00;70.00
70947;DHT22;58605;48.700;8.760;2023-07-31T00:09:55;17.00;69.90
70947;DHT22;58605;48.700;8.760;2023-07-31T00:12:22;17.00;70.10
70947;DHT22;58605;48.700;8.760;2023-07-31T00:14:48;17.00;69.80
70947;DHT22;58605;48.700;8.760;2023-07-31T00:17:14;16.90;69.70
70947;DHT22;58605;48.700;8.760;2023-07-31T00:19:40;16.90;69.90
70947;DHT22;58605;48.700;8.760;2023-07-31T00:22:08;16.90;70.00
70947;DHT22;58605;48.700;8.760;2023-07-31T00:24:34;16.90;69.70
70947;DHT22;58605;48.700;8.760;2023-07-31T00:27:00;17.00;69.70
70947;DHT22;58605;48.700;8.760;2023-07-31T00:29:26;16.90;69.30
70947;DHT22;58605;48.700;8.760;2023-07-31T00:31:52;16.50;69.90
70947;DHT22;58605;48.700;8.760;2023-07-31T00:34:18;16.00;71.60
70947;DHT22;58605;48.700;8.760;2023-07-31T00:36:44;15.60;73.60
70947;DHT22;58605;48.700;8.760;2023-07-31T00:39:12;15.20;74.90
70947;DHT22;58605;48.700;8.760;2023-07-31T00:41:38;14.90;76.40
70947;DHT22;58605;48.700;8.760;2023-07-31T00:44:04;14.70;76.80
70947;DHT22;58605;48.700;8.760;2023-07-31T00:46:30;14.60;77.00
70947;DHT22;58605;48.700;8.760;2023-07-31T00:48:57;14.80;77.10
70947;DHT22;58605;48.700;8.760;2023-07-31T00:51:24;14.70;75.80
70947;DHT22;58605;48.700;8.760;2023-07-31T00:53:51;14.60;76.70
70947;DHT22;58605;48.700;8.760;2023-07-31T00:56:21;14.60;77.50
70947;DHT22;58605;48.700;8.760;2023-07-31T00:58:47;14.60;78.00
70947;DHT22;58605;48.700;8.760;2023-07-31T01:01:14;14.40;78.20
70947;DHT22;58605;48.700;8.760;2023-07-31T01:03:40;14.40;77.80
70947;DHT22;58605;48.700;8.760;2023-07-31T01:06:14;14.30;78.40
70947;DHT22;58605;48.700;8.760;2023-07-31T01:08:48;14.20;78.40
70947;DHT22;58605;48.700;8.760;2023-07-31T01:11:24;14.30;78.00
70947;DHT22;58605;48.700;8.760;2023-07-31T01:13:51;14.30;78.10
70947;DHT22;58605;48.700;8.760;2023-07-31T01:16:18;14.40;78.20
70947;DHT22;58605;48.700;8.760;2023-07-31T01:18:44;14.40;78.40
70947;DHT22;58605;48.700;8.760;2023-07-31T01:21:30;14.60;78.90
70947;DHT22;58605;48.700;8.760;2023-07-31T01:24:15;14.80;77.70
70947;DHT22;58605;48.700;8.760;2023-07-31T01:26:50;15.10;76.60
70947;DHT22;58605;48.700;8.760;2023-07-31T01:29:24;15.20;76.00
70947;DHT22;58605;48.700;8.760;2023-07-31T01:31:53;15.20;75.60
70947;DHT22;58605;48.700;8.760;2023-07-31T01:34:21;15.10;75.70
70947;DHT22;58605;48.700;8.760;2023-07-31T01:36:48;14.90;76.80
70947;DHT22;58605;48.700;8.760;2023-07-31T01:39:14;14.70;77.10
70947;DHT22;58605;48.700;8.760;2023-07-31T01:41:41;14.50;78.00
70947;DHT22;58605;48.700;8.760;2023-07-31T01:44:08;14.60;78.10
70947;DHT22;58605;48.700;8.760;2023-07-31T01:46:34;14.50;78.40
70947;DHT22;58605;48.700;8.760;2023-07-31T01:49:00;14.20;79.30
70947;DHT22;58605;48.700;8.760;2023-07-31T01:51:26;13.90;79.20
70947;DHT22;58605;48.700;8.760;2023-07-31T01:53:52;13.70;80.30
70947;DHT22;58605;48.700;8.760;2023-07-31T01:56:19;13.60;81.20
70947;DHT22;58605;48.700;8.760;2023-07-31T01:58:45;13.40;81.30
70947;DHT22;58605;48.700;8.760;2023-07-31T02:01:12;13.30;82.20
70947;DHT22;58605;48.700;8.760;2023-07-31T02:03:38;13.30;82.40
70947;DHT22;58605;48.700;8.760;2023-07-31T02:06:04;13.30;82.50
70947;DHT22;58605;48.700;8.760;2023-07-31T02:08:30;13.30;82.70
70947;DHT22;58605;48.700;8.760;2023-07-31T02:10:56;13.30;82.70
70947;DHT22;58605;48.700;8.760;2023-07-31T02:13:23;13.20;82.60
70947;DHT22;58605;48.700;8.760;2023-07-31T02:15:49;13.20;82.50
70947;DHT22;58605;48.700;8.760;2023-07-31T02:18:17;13.40;82.40
70947;DHT22;58605;48.700;8.760;2023-07-31T02:20:43;13.60;81.00
70947;DHT22;58605;48.700;8.760;2023-07-31T02:23:12;13.50;81.10
70947;DHT22;58605;48.700;8.760;2023-07-31T02:25:38;13.40;82.00
70947;DHT22;58605;48.700;8.760;2023-07-31T02:28:04;13.30;82.10
70947;DHT22;58605;48.700;8.760;2023-07-31T02:30:30;13.30;82.20
70947;DHT22;58605;48.700;8.760;2023-07-31T02:32:56;13.30;82.20
70947;DHT22;58605;48.700;8.760;2023-07-31T02:35:23;13.30;82.30
70947;DHT22;58605;48.700;8.760;2023-07-31T02:37:50;13.20;81.70
70947;DHT22;58605;48.700;8.760;2023-07-31T02:40:16;13.00;82.00
70947;DHT22;58605;48.700;8.760;2023-07-31T02:42:42;12.90;83.00
70947;DHT22;58605;48.700;8.760;2023-07-31T02:45:09;13.00;83.10
70947;DHT22;58605;48.700;8.760;2023-07-31T02:47:35;13.00;83.40
70947;DHT22;58605;48.700;8.760;2023-07-31T02:50:01;13.10;83.10
70947;DHT22;58605;48.700;8.760;2023-07-31T02:52:29;13.10;83.30
70947;DHT22;58605;48.700;8.760;2023-07-31T02:54:55;13.10;83.00
70947;DHT22;58605;48.700;8.760;2023-07-31T02:57:21;13.20;82.40
70947;DHT22;58605;48.700;8.760;2023-07-31T02:59:47;13.20;82.10
70947;DHT22;58605;48.700;8.760;2023-07-31T03:02:13;13.20;82.10
70947;DHT22;58605;48.700;8.760;2023-07-31T03:04:40;13.20;82.20
70947;DHT22;58605;48.700;8.760;2023-07-31T03:07:06;13.20;82.50
70947;DHT22;58605;48.700;8.760;2023-07-31T03:09:33;13.20;82.40
70947;DHT22;58605;48.700;8.760;2023-07-31T03:11:59;13.20;82.50
70947;DHT22;58605;48.700;8.760;2023-07-31T03:14:25;13.20;82.80
70947;DHT22;58605;48.700;8.760;2023-07-31T03:16:54;13.10;82.30
70947;DHT22;58605;48.700;8.760;2023-07-31T03:19:20;13.30;82.50
70947;DHT22;58605;48.700;8.760;2023-07-31T03:21:46;13.60;82.10
70947;DHT22;58605;48.700;8.760;2023-07-31T03:24:12;13.90;81.20
70947;DHT22;58605;48.700;8.760;2023-07-31T03:26:40;14.20;79.30
70947;DHT22;58605;48.700;8.760;2023-07-31T03:29:09;14.40;78.90
70947;DHT22;58605;48.700;8.760;2023-07-31T03:31:35;14.40;78.10
70947;DHT22;58605;48.700;8.760;2023-07-31T03:34:01;14.00;79.40
70947;DHT22;58605;48.700;8.760;2023-07-31T03:36:27;13.70;80.40
70947;DHT22;58605;48.700;8.760;2023-07-31T03:38:53;13.80;81.10
70947;DHT22;58605;48.700;8.760;2023-07-31T03:41:19;14.10;80.80
70947;DHT22;58605;48.700;8.760;2023-07-31T03:43:51;14.40;80.30
70947;DHT22;58605;48.700;8.760;2023-07-31T03:46:22;14.70;78.50
70947;DHT22;58605;48.700;8.760;2023-07-31T03:48:48;14.70;77.40
70947;DHT22;58605;48.700;8.760;2023-07-31T03:51:14;14.70;78.00
70947;DHT22;58605;48.700;8.760;2023-07-31T03:53:40;14.90;77.50
70947;DHT22;58605;48.700;8.760;2023-07-31T03:56:06;15.00;77.40
70947;DHT22;58605;48.700;8.760;2023-07-31T03:58:32;15.10;76.80
70947;DHT22;58605;48.700;8.760;2023-07-31T04:01:00;15.20;76.30
70947;DHT22;58605;48.700;8.760;2023-07-31T04:03:26;15.30;76.00
70947;DHT22;58605;48.700;8.760;2023-07-31T04:05:54;15.30;76.00
70947;DHT22;58605;48.700;8.760;2023-07-31T04:08:20;15.20;76.00
70947;DHT22;58605;48.700;8.760;2023-07-31T04:10:47;15.30;75.80
70947;DHT22;58605;48.700;8.760;2023-07-31T04:13:13;15.30;75.80
70947;DHT22;58605;48.700;8.760;2023-07-31T04:15:39;15.30;76.00
70947;DHT22;58605;48.700;8.760;2023-07-31T04:18:07;15.20;75.80
70947;DHT22;58605;48.700;8.760;2023-07-31T04:20:33;15.20;76.10
70947;DHT22;58605;48.700;8.760;2023-07-31T04:22:59;15.30;76.10
70947;DHT22;58605;48.700;8.760;2023-07-31T04:25:25;15.40;75.80
70947;DHT22;58605;48.700;8.760;2023-07-31T04:27:51;15.10;76.80
70947;DHT22;58605;48.700;8.760;2023-07-31T04:30:17;14.70;77.60
70947;DHT22;58605;48.700;8.760;2023-07-31T04:32:43;14.40;78.90
70947;DHT22;58605;48.700;8.760;2023-07-31T04:35:11;14.10;79.70
70947;DHT22;58605;48.700;8.760;2023-07-31T04:37:37;13.90;80.10
70947;DHT22;58605;48.700;8.760;2023-07-31T04:40:05;13.90;81.20
70947;DHT22;58605;48.700;8.760;2023-07-31T04:42:31;14.00;81.20
70947;DHT22;58605;48.700;8.760;2023-07-31T04:44:57;14.30;80.00
70947;DHT22;58605;48.700;8.760;2023-07-31T04:47:23;14.40;79.10
70947;DHT22;58605;48.700;8.760;2023-07-31T04:49:49;14.50;79.00
70947;DHT22;58605;48.700;8.760;2023-07-31T04:52:17;14.70;78.60
70947;DHT22;58605;48.700;8.760;2023-07-31T04:54:43;14.80;78.20
70947;DHT22;58605;48.700;8.760;2023-07-31T04:57:09;15.00;77.70
70947;DHT22;58605;48.700;8.760;2023-07-31T04:59:35;15.30;76.80
70947;DHT22;58605;48.700;8.760;2023-07-31T05:02:01;15.30;76.60
70947;DHT22;58605;48.700;8.760;2023-07-31T05:04:27;15.50;76.60
70947;DHT22;58605;48.700;8.760;2023-07-31T05:06:53;15.80;75.60
70947;DHT22;58605;48.700;8.760;2023-07-31T05:09:21;16.00;74.80
70947;DHT22;58605;48.700;8.760;2023-07-31T05:11:47;16.20;74.60
70947;DHT22;58605;48.700;8.760;2023-07-31T05:14:13;16.30;74.40
70947;DHT22;58605;48.700;8.760;2023-07-31T05:16:40;16.30;74.20
70947;DHT22;58605;48.700;8.760;2023-07-31T05:19:06;16.40;74.30
70947;DHT22;58605;48.700;8.760;2023-07-31T05:21:32;16.50;73.80
70947;DHT22;58605;48.700;8.760;2023-07-31T05:23:58;16.60;74.00
70947;DHT22;58605;48.700;8.760;2023-07-31T05:26:25;16.70;73.80
70947;DHT22;58605;48.700;8.760;2023-07-31T05:28:51;16.60;73.20
70947;DHT22;58605;48.700;8.760;2023-07-31T05:31:18;16.60;73.50
70947;DHT22;58605;48.700;8.760;2023-07-31T05:33:44;16.60;74.20
70947;DHT22;58605;48.700;8.760;2023-07-31T05:36:10;16.60;74.30
70947;DHT22;58605;48.700;8.760;2023-07-31T05:38:36;16.70;74.70
70947;DHT22;58605;48.700;8.760;2023-07-31T05:41:02;16.80;74.60
70947;DHT22;58605;48.700;8.760;2023-07-31T05:43:30;16.80;73.80
70947;DHT22;58605;48.700;8.760;2023-07-31T05:45:56;16.90;72.50
70947;DHT22;58605;48.700;8.760;2023-07-31T05:48:22;17.00;72.30
70947;DHT22;58605;48.700;8.760;2023-07-31T05:50:48;17.00;71.20
70947;DHT22;58605;48.700;8.760;2023-07-31T05:53:14;17.00;71.00
70947;DHT22;58605;48.700;8.760;2023-07-31T05:55:40;17.10;71.20
70947;DHT22;58605;48.700;8.760;2023-07-31T05:58:06;17.10;70.50
70947;DHT22;58605;48.700;8.760;2023-07-31T06:00:34;17.10;70.60
70947;DHT22;58605;48.700;8.760;2023-07-31T06:03:00;17.20;70.20
70947;DHT22;58605;48.700;8.760;2023-07-31T06:05:26;17.20;69.90
70947;DHT22;58605;48.700;8.760;2023-07-31T06:07:54;17.20;70.70
70947;DHT22;58605;48.700;8.760;2023-07-31T06:10:20;17.20;70.50
70947;DHT22;58605;48.700;8.760;2023-07-31T06:12:46;17.20;71.20
70947;DHT22;58605;48.700;8.760;2023-07-31T06:15:12;17.30;70.50
70947;DHT22;58605;48.700;8.760;2023-07-31T06:17:40;17.30;70.30
70947;DHT22;58605;48.700;8.760;2023-07-31T06:20:07;17.30;70.40
70947;DHT22;58605;48.700;8.760;2023-07-31T06:22:33;17.30;70.40
70947;DHT22;58605;48.700;8.760;2023-07-31T06:24:59;17.30;70.00
70947;DHT22;58605;48.700;8.760;2023-07-31T06:27:26;17.30;71.20
70947;DHT22;58605;48.700;8.760;2023-07-31T06:29:52;17.30;70.10
70947;DHT22;58605;48.700;8.760;2023-07-31T06:32:18;17.40;70.40
70947;DHT22;58605;48.700;8.760;2023-07-31T06:34:45;17.40;69.90
70947;DHT22;58605;48.700;8.760;2023-07-31T06:37:11;17.40;71.00
70947;DHT22;58605;48.700;8.760;2023-07-31T06:39:38;17.40;69.40
70947;DHT22;58605;48.700;8.760;2023-07-31T06:42:04;17.40;71.50
70947;DHT22;58605;48.700;8.760;2023-07-31T06:44:30;17.40;70.10
70947;DHT22;58605;48.700;8.760;2023-07-31T06:46:56;17.40;70.70
70947;DHT22;58605;48.700;8.760;2023-07-31T06:49:22;17.40;68.90
70947;DHT22;58605;48.700;8.760;2023-07-31T06:51:50;17.40;68.40
70947;DHT22;58605;48.700;8.760;2023-07-31T06:54:16;17.40;69.70
70947;DHT22;58605;48.700;8.760;2023-07-31T06:56:42;17.40;70.00
70947;DHT22;58605;48.700;8.760;2023-07-31T06:59:08;17.50;70.50
70947;DHT22;58605;48.700;8.760;2023-07-31T07:01:34;17.50;69.60
70947;DHT22;58605;48.700;8.760;2023-07-31T07:04:00;17.50;69.50
70947;DHT22;58605;48.700;8.760;2023-07-31T07:06:27;17.50;69.90
70947;DHT22;58605;48.700;8.760;2023-07-31T07:08:54;17.60;70.20
70947;DHT22;58605;48.700;8.760;2023-07-31T07:11:20;17.50;70.70
70947;DHT22;58605;48.700;8.760;2023-07-31T07:13:46;17.50;72.20
70947;DHT22;58605;48.700;8.760;2023-07-31T07:16:12;17.50;72.40
70947;DHT22;58605;48.700;8.760;2023-07-31T07:18:38;17.60;71.70
70947;DHT22;58605;48.700;8.760;2023-07-31T07:21:04;17.60;71.30
70947;DHT22;58605;48.700;8.760;2023-07-31T07:23:31;17.50;71.70
70947;DHT22;58605;48.700;8.760;2023-07-31T07:25:58;17.50;71.30
70947;DHT22;58605;48.700;8.760;2023-07-31T07:28:25;17.50;71.40
70947;DHT22;58605;48.700;8.760;2023-07-31T07:30:51;17.50;71.70
70947;DHT22;58605;48.700;8.760;2023-07-31T07:33:18;17.50;72.90
70947;DHT22;58605;48.700;8.760;2023-07-31T07:35:44;17.50;72.90
70947;DHT22;58605;48.700;8.760;2023-07-31T07:38:10;17.50;73.90
70947;DHT22;58605;48.700;8.760;2023-07-31T07:40:38;17.50;72.60
70947;DHT22;58605;48.700;8.760;2023-07-31T07:43:06;17.60;71.60
70947;DHT22;58605;48.700;8.760;2023-07-31T07:45:33;17.60;71.60
70947;DHT22;58605;48.700;8.760;2023-07-31T07:47:59;17.70;72.50
70947;DHT22;58605;48.700;8.760;2023-07-31T07:50:25;17.60;72.00
70947;DHT22;58605;48.700;8.760;2023-07-31T07:52:51;17.70;73.30
70947;DHT22;58605;48.700;8.760;2023-07-31T07:55:17;17.70;73.00
70947;DHT22;58605;48.700;8.760;2023-07-31T07:57:43;17.70;72.60
70947;DHT22;58605;48.700;8.760;2023-07-31T08:00:13;17.70;72.50
70947;DHT22;58605;48.700;8.760;2023-07-31T08:02:39;17.60;72.30
70947;DHT22;58605;48.700;8.760;2023-07-31T08:05:06;17.60;71.70
70947;DHT22;58605;48.700;8.760;2023-07-31T08:07:38;17.60;73.80
70947;DHT22;58605;48.700;8.760;2023-07-31T08:10:11;17.60;72.90
70947;DHT22;58605;48.700;8.760;2023-07-31T08:12:37;17.60;73.50
70947;DHT22;58605;48.700;8.760;2023-07-31T08:15:04;17.60;72.10
70947;DHT22;58605;48.700;8.760;2023-07-31T08:17:32;17.60;72.40
70947;DHT22;58605;48.700;8.760;2023-07-31T08:20:06;17.70;73.40
70947;DHT22;58605;48.700;8.760;2023-07-31T08:22:32;17.60;72.20
70947;DHT22;58605;48.700;8.760;2023-07-31T08:24:58;17.70;72.50
70947;DHT22;58605;48.700;8.760;2023-07-31T08:27:24;17.60;71.50
70947;DHT22;58605;48.700;8.760;2023-07-31T08:29:52;17.60;73.40
70947;DHT22;58605;48.700;8.760;2023-07-31T08:32:18;17.70;72.20
70947;DHT22;58605;48.700;8.760;2023-07-31T08:34:45;17.70;71.80
70947;DHT22;58605;48.700;8.760;2023-07-31T08:37:11;17.70;71.80
70947;DHT22;58605;48.700;8.760;2023-07-31T08:39:37;17.70;72.90
70947;DHT22;58605;48.700;8.760;2023-07-31T08:42:08;17.70;73.40
70947;DHT22;58605;48.700;8.760;2023-07-31T08:44:43;17.70;72.20
70947;DHT22;58605;48.700;8.760;2023-07-31T08:47:16;17.70;72.20
70947;DHT22;58605;48.700;8.760;2023-07-31T08:49:45;17.70;74.10
70947;DHT22;58605;48.700;8.760;2023-07-31T08:52:12;17.70;72.90
70947;DHT22;58605;48.700;8.760;2023-07-31T08:54:38;17.70;73.50
70947;DHT22;58605;48.700;8.760;2023-07-31T08:57:05;17.70;74.10
70947;DHT22;58605;48.700;8.760;2023-07-31T08:59:34;17.70;72.70
70947;DHT22;58605;48.700;8.760;2023-07-31T09:02:05;17.70;73.50
70947;DHT22;58605;48.700;8.760;2023-07-31T09:04:33;17.70;72.50
70947;DHT22;58605;48.700;8.760;2023-07-31T09:07:03;17.70;73.70
70947;DHT22;58605;48.700;8.760;2023-07-31T09:09:30;17.70;72.40
70947;DHT22;58605;48.700;8.760;2023-07-31T09:11:57;17.70;71.80
70947;DHT22;58605;48.700;8.760;2023-07-31T09:14:24;17.70;72.10
70947;DHT22;58605;48.700;8.760;2023-07-31T09:16:55;17.70;71.70
70947;DHT22;58605;48.700;8.760;2023-07-31T09:19:28;17.70;73.30
70947;DHT22;58605;48.700;8.760;2023-07-31T09:21:54;17.80;71.50
70947;DHT22;58605;48.700;8.760;2023-07-31T09:24:29;17.70;71.00
70947;DHT22;58605;48.700;8.760;2023-07-31T09:26:56;17.80;71.80
70947;DHT22;58605;48.700;8.760;2023-07-31T09:29:24;17.80;73.00
70947;DHT22;58605;48.700;8.760;2023-07-31T09:31:52;17.80;71.90
70947;DHT22;58605;48.700;8.760;2023-07-31T09:34:19;17.80;73.90
70947;DHT22;58605;48.700;8.760;2023-07-31T09:36:46;17.80;71.20
70947;DHT22;58605;48.700;8.760;2023-07-31T09:39:13;17.80;71.50
70947;DHT22;58605;48.700;8.760;2023-07-31T09:41:44;17.80;69.80
70947;DHT22;58605;48.700;8.760;2023-07-31T09:44:10;17.90;72.00
70947;DHT22;58605;48.700;8.760;2023-07-31T09:46:37;17.90;72.40
70947;DHT22;58605;48.700;8.760;2023-07-31T09:49:07;17.90;70.50
70947;DHT22;58605;48.700;8.760;2023-07-31T09:51:35;17.90;73.00
70947;DHT22;58605;48.700;8.760;2023-07-31T09:54:10;17.90;73.00
70947;DHT22;58605;48.700;8.760;2023-07-31T09:56:42;17.90;72.50
70947;DHT22;58605;48.700;8.760;2023-07-31T09:59:11;17.90;71.00
70947;DHT22;58605;48.700;8.760;2023-07-31T10:01:38;18.00;71.40
70947;DHT22;58605;48.700;8.760;2023-07-31T10:04:05;18.00;74.00
70947;DHT22;58605;48.700;8.760;2023-07-31T10:06:34;18.00;70.60
70947;DHT22;58605;48.700;8.760;2023-07-31T10:09:01;18.10;71.60
70947;DHT22;58605;48.700;8.760;2023-07-31T10:11:28;18.10;68.90
70947;DHT22;58605;48.700;8.760;2023-07-31T10:13:58;18.10;71.10
70947;DHT22;58605;48.700;8.760;2023-07-31T10:16:24;18.10;71.40
70947;DHT22;58605;48.700;8.760;2023-07-31T10:18:51;18.10;71.70
70947;DHT22;58605;48.700;8.760;2023-07-31T10:21:18;18.10;69.70
70947;DHT22;58605;48.700;8.760;2023-07-31T10:23:44;18.20;71.20
70947;DHT22;58605;48.700;8.760;2023-07-31T10:26:11;18.20;69.20
70947;DHT22;58605;48.700;8.760;2023-07-31T10:28:39;18.40;68.30
70947;DHT22;58605;48.700;8.760;2023-07-31T10:31:08;18.40;68.90
70947;DHT22;58605;48.700;8.760;2023-07-31T10:33:35;18.60;69.10
70947;DHT22;58605;48.700;8.760;2023-07-31T10:36:13;18.60;70.00
70947;DHT22;58605;48.700;8.760;2023-07-31T10:38:40;18.60;69.20
70947;DHT22;58605;48.700;8.760;2023-07-31T10:41:08;18.60;69.50
70947;DHT22;58605;48.700;8.760;2023-07-31T10:43:34;18.50;68.80
70947;DHT22;58605;48.700;8.760;2023-07-31T10:46:08;18.40;68.70
70947;DHT22;58605;48.700;8.760;2023-07-31T10:48:35;18.40;70.90
70947;DHT22;58605;48.700;8.760;2023-07-31T10:51:07;18.50;68.40
70947;DHT22;58605;48.700;8.760;2023-07-31T10:53:34;18.50;68.50
70947;DHT22;58605;48.700;8.760;2023-07-31T10:56:01;18.60;68.90
70947;DHT22;58605;48.700;8.760;2023-07-31T10:58:27;18.60;69.10
70947;DHT22;58605;48.700;8.760;2023-07-31T11:00:56;18.60;68.10
70947;DHT22;58605;48.700;8.760;2023-07-31T11:03:26;18.50;69.10
70947;DHT22;58605;48.700;8.760;2023-07-31T11:05:59;18.50;68.10
70947;DHT22;58605;48.700;8.760;2023-07-31T11:08:27;18.50;69.40
70947;DHT22;58605;48.700;8.760;2023-07-31T11:11:05;18.40;71.10
70947;DHT22;58605;48.700;8.760;2023-07-31T11:13:33;18.40;68.40
70947;DHT22;58605;48.700;8.760;2023-07-31T11:16:00;18.50;68.30
70947;DHT22;58605;48.700;8.760;2023-07-31T11:18:28;18.60;67.90
70947;DHT22;58605;48.700;8.760;2023-07-31T11:20:55;18.60;68.10
70947;DHT22;58605;48.700;8.760;2023-07-31T11:23:22;18.60;68.00
70947;DHT22;58605;48.700;8.760;2023-07-31T11:25:48;18.60;70.70
70947;DHT22;58605;48.700;8.760;2023-07-31T11:28:16;18.60;70.90
70947;DHT22;58605;48.700;8.760;2023-07-31T11:30:44;18.50;71.40
70947;DHT22;58605;48.700;8.760;2023-07-31T11:33:12;18.60;66.10
70947;DHT22;58605;48.700;8.760;2023-07-31T11:35:44;18.70;67.50
70947;DHT22;58605;48.700;8.760;2023-07-31T11:38:12;18.70;68.40
70947;DHT22;58605;48.700;8.760;2023-07-31T11:40:41;18.70;67.70
70947;DHT22;58605;48.700;8.760;2023-07-31T11:43:08;18.70;67.40
70947;DHT22;58605;48.700;8.760;2023-07-31T11:45:34;18.70;71.30
70947;DHT22;58605;48.700;8.760;2023-07-31T11:48:03;18.50;70.50
70947;DHT22;58605;48.700;8.760;2023-07-31T11:50:33;18.40;71.20
70947;DHT22;58605;48.700;8.760;2023-07-31T11:53:06;18.40;69.30
70947;DHT22;58605;48.700;8.760;2023-07-31T11:55:34;18.50;69.30
70947;DHT22;58605;48.700;8.760;2023-07-31T11:58:00;18.50;69.20
70947;DHT22;58605;48.700;8.760;2023-07-31T12:00:27;18.40;72.00
70947;DHT22;58605;48.700;8.760;2023-07-31T12:02:53;18.30;73.10
70947;DHT22;58605;48.700;8.760;2023-07-31T12:05:20;18.30;72.40
70947;DHT22;58605;48.700;8.760;2023-07-31T12:07:49;18.30;72.90
70947;DHT22;58605;48.700;8.760;2023-07-31T12:10:27;18.30;73.70
70947;DHT22;58605;48.700;8.760;2023-07-31T12:13:01;18.30;74.10
70947;DHT22;58605;48.700;8.760;2023-07-31T12:15:33;18.20;75.30
70947;DHT22;58605;48.700;8.760;2023-07-31T12:18:00;18.20;74.40
70947;DHT22;58605;48.700;8.760;2023-07-31T12:20:30;18.20;74.00
70947;DHT22;58605;48.700;8.760;2023-07-31T12:22:56;18.20;73.90
70947;DHT22;58605;48.700;8.760;2023-07-31T12:25:30;18.30;72.80
70947;DHT22;58605;48.700;8.760;2023-07-31T12:27:56;18.30;72.30
70947;DHT22;58605;48.700;8.760;2023-07-31T12:30:29;18.30;73.10
70947;DHT22;58605;48.700;8.760;2023-07-31T12:32:57;18.30;71.80
70947;DHT22;58605;48.700;8.760;2023-07-31T12:35:23;18.30;72.90
70947;DHT22;58605;48.700;8.760;2023-07-31T12:37:49;18.30;71.60
70947;DHT22;58605;48.700;8.760;2023-07-31T12:40:16;18.30;71.80
70947;DHT22;58605;48.700;8.760;2023-07-31T12:42:43;18.40;72.00
70947;DHT22;58605;48.700;8.760;2023-07-31T12:45:10;18.40;72.00
70947;DHT22;58605;48.700;8.760;2023-07-31T12:47:36;18.40;71.80
70947;DHT22;58605;48.700;8.760;2023-07-31T12:50:02;18.40;71.60
70947;DHT22;58605;48.700;8.760;2023-07-31T12:52:28;18.40;72.50
70947;DHT22;58605;48.700;8.760;2023-07-31T12:54:54;18.50;71.30
70947;DHT22;58605;48.700;8.760;2023-07-31T12:57:21;18.70;73.20
70947;DHT22;58605;48.700;8.760;2023-07-31T12:59:49;18.70;72.40
70947;DHT22;58605;48.700;8.760;2023-07-31T13:02:15;18.70;70.20
70947;DHT22;58605;48.700;8.760;2023-07-31T13:04:41;18.70;71.80
70947;DHT22;58605;48.700;8.760;2023-07-31T13:07:07;18.60;71.10
70947;DHT22;58605;48.700;8.760;2023-07-31T13:09:33;18.60;71.30
70947;DHT22;58605;48.700;8.760;2023-07-31T13:11:59;18.60;70.90
70947;DHT22;58605;48.700;8.760;2023-07-31T13:14:25;18.60;70.40
70947;DHT22;58605;48.700;8.760;2023-07-31T13:16:53;18.70;70.50
70947;DHT22;58605;48.700;8.760;2023-07-31T13:19:19;18.80;72.30
70947;DHT22;58605;48.700;8.760;2023-07-31T13:21:45;18.70;70.70
70947;DHT22;58605;48.700;8.760;2023-07-31T13:24:11;18.80;71.20
70947;DHT22;58605;48.700;8.760;2023-07-31T13:26:37;18.80;72.70
70947;DHT22;58605;48.700;8.760;2023-07-31T13:29:03;18.70;71.30
70947;DHT22;58605;48.700;8.760;2023-07-31T13:31:29;18.80;71.30
70947;DHT22;58605;48.700;8.760;2023-07-31T13:33:57;18.80;71.00
70947;DHT22;58605;48.700;8.760;2023-07-31T13:36:23;18.90;71.80
70947;DHT22;58605;48.700;8.760;2023-07-31T13:38:49;18.80;72.00
70947;DHT22;58605;48.700;8.760;2023-07-31T13:41:16;18.80;72.60
70947;DHT22;58605;48.700;8.760;2023-07-31T13:43:42;18.70;71.00
70947;DHT22;58605;48.700;8.760;2023-07-31T13:46:08;18.80;72.20
70947;DHT22;58605;48.700;8.760;2023-07-31T13:48:36;18.70;71.70
70947;DHT22;58605;48.700;8.760;2023-07-31T13:51:04;18.70;71.30
70947;DHT22;58605;48.700;8.760;2023-07-31T13:53:30;18.70;72.60
70947;DHT22;58605;48.700;8.760;2023-07-31T13:55:57;18.70;72.70
70947;DHT22;58605;48.700;8.760;2023-07-31T13:58:23;18.70;71.60
70947;DHT22;58605;48.700;8.760;2023-07-31T14:00:49;18.70;72.90
70947;DHT22;58605;48.700;8.760;2023-07-31T14:03:15;18.70;72.20
70947;DHT22;58605;48.700;8.760;2023-07-31T14:05:41;18.70;72.20
70947;DHT22;58605;48.700;8.760;2023-07-31T14:08:09;18.70;71.60
70947;DHT22;58605;48.700;8.760;2023-07-31T14:10:35;18.80;71.60
70947;DHT22;58605;48.700;8.760;2023-07-31T14:13:01;18.70;73.80
70947;DHT22;58605;48.700;8.760;2023-07-31T14:15:27;18.80;71.30
70947;DHT22;58605;48.700;8.760;2023-07-31T14:17:54;18.80;73.60
70947;DHT22;58605;48.700;8.760;2023-07-31T14:20:20;18.90;68.40
70947;DHT22;58605;48.700;8.760;2023-07-31T14:22:46;19.00;71.30
70947;DHT22;58605;48.700;8.760;2023-07-31T14:25:14;19.20;69.90
70947;DHT22;58605;48.700;8.760;2023-07-31T14:27:40;19.00;68.80
70947;DHT22;58605;48.700;8.760;2023-07-31T14:30:08;19.10;70.00
70947;DHT22;58605;48.700;8.760;2023-07-31T14:32:34;19.10;70.00
70947;DHT22;58605;48.700;8.760;2023-07-31T14:35:00;19.20;67.10
70947;DHT22;58605;48.700;8.760;2023-07-31T14:37:26;19.20;70.40
70947;DHT22;58605;48.700;8.760;2023-07-31T14:39:53;19.20;70.00
70947;DHT22;58605;48.700;8.760;2023-07-31T14:42:21;19.20;67.80
70947;DHT22;58605;48.700;8.760;2023-07-31T14:44:47;19.30;67.50
70947;DHT22;58605;48.700;8.760;2023-07-31T14:47:13;19.10;71.40
70947;DHT22;58605;48.700;8.760;2023-07-31T14:49:39;19.00;71.70
70947;DHT22;58605;48.700;8.760;2023-07-31T14:52:06;19.00;71.40
70947;DHT22;58605;48.700;8.760;2023-07-31T14:54:32;19.00;70.60
70947;DHT22;58605;48.700;8.760;2023-07-31T14:56:58;19.00;69.00
70947;DHT22;58605;48.700;8.760;2023-07-31T14:59:26;18.90;71.50
70947;DHT22;58605;48.700;8.760;2023-07-31T15:01:52;19.00;72.40
70947;DHT22;58605;48.700;8.760;2023-07-31T15:04:18;18.90;70.40
70947;DHT22;58605;48.700;8.760;2023-07-31T15:06:44;18.80;73.40
70947;DHT22;58605;48.700;8.760;2023-07-31T15:09:10;18.80;73.10
70947;DHT22;58605;48.700;8.760;2023-07-31T15:11:36;18.80;72.70
70947;DHT22;58605;48.700;8.760;2023-07-31T15:14:03;18.80;71.60
70947;DHT22;58605;48.700;8.760;2023-07-31T15:16:30;18.80;72.70
70947;DHT22;58605;48.700;8.760;2023-07-31T15:18:57;18.80;71.70
70947;DHT22;58605;48.700;8.760;2023-07-31T15:21:23;18.80;74.20
70947;DHT22;58605;48.700;8.760;2023-07-31T15:23:49;18.80;73.10
70947;DHT22;58605;48.700;8.760;2023-07-31T15:26:15;18.80;72.50
70947;DHT22;58605;48.700;8.760;2023-07-31T15:28:41;18.80;72.30